createdAt,value
2023-01-09T00:00:58.232Z,6.90
2023-01-09T00:02:01.205Z,6.90
2023-01-09T00:03:03.178Z,6.90
2023-01-09T00:04:07.390Z,6.90
2023-01-09T00:05:11.235Z,6.90
2023-01-09T00:06:15.874Z,6.90
2023-01-09T00:07:17.844Z,6.90
2023-01-09T00:08:20.813Z,6.90
2023-01-09T00:09:25.094Z,6.90
2023-01-09T00:10:27.100Z,6.90
2023-01-09T00:11:30.086Z,6.90
2023-01-09T00:12:32.442Z,6.90
2023-01-09T00:13:35.793Z,6.90
2023-01-09T00:14:37.775Z,6.90
2023-01-09T00:15:53.036Z,6.90
2023-01-09T00:16:55.381Z,6.90
2023-01-09T00:17:58.339Z,6.90
2023-01-09T00:19:00.985Z,6.90
2023-01-09T00:20:04.529Z,6.90
2023-01-09T00:21:08.578Z,6.90
2023-01-09T00:22:12.894Z,7.00
2023-01-09T00:23:14.851Z,6.90
2023-01-09T00:24:17.775Z,6.90
2023-01-09T00:25:19.829Z,6.90
2023-01-09T00:26:23.651Z,6.90
2023-01-09T00:27:25.656Z,6.90
2023-01-09T00:28:28.578Z,6.90
2023-01-09T00:29:30.547Z,6.90
2023-01-09T00:30:33.524Z,6.90
2023-01-09T00:31:35.521Z,6.80
2023-01-09T00:32:38.505Z,6.80
2023-01-09T00:33:46.439Z,6.90
2023-01-09T00:34:49.727Z,6.90
2023-01-09T00:35:52.706Z,6.90
2023-01-09T00:36:56.426Z,6.90
2023-01-09T00:37:59.775Z,6.90
2023-01-09T00:39:02.869Z,6.90
2023-01-09T00:40:05.433Z,6.90
2023-01-09T00:41:13.938Z,6.90
2023-01-09T00:42:19.849Z,6.90
2023-01-09T00:43:25.291Z,6.80
2023-01-09T00:44:31.670Z,6.80
2023-01-09T00:45:34.609Z,6.80
2023-01-09T00:46:40.382Z,6.90
2023-01-09T00:47:46.761Z,6.90
2023-01-09T00:48:49.973Z,6.80
2023-01-09T00:49:54.428Z,6.90
2023-01-09T00:50:59.071Z,6.90
2023-01-09T00:52:02.743Z,6.80
2023-01-09T00:53:10.087Z,6.90
2023-01-09T00:54:16.085Z,6.90
2023-01-09T00:55:21.224Z,6.90
2023-01-09T00:56:25.689Z,6.80
2023-01-09T00:57:28.698Z,6.80
2023-01-09T00:58:32.007Z,6.70
2023-01-09T00:59:35.053Z,6.70
2023-01-09T01:00:37.035Z,6.70
2023-01-09T01:01:40.147Z,6.80
2023-01-09T01:02:42.210Z,6.70
2023-01-09T01:03:45.194Z,6.80
2023-01-09T01:05:05.613Z,6.80
2023-01-09T01:06:26.664Z,6.90
2023-01-09T01:07:41.185Z,6.80
2023-01-09T01:09:02.593Z,6.90
2023-01-09T01:10:06.649Z,6.90
2023-01-09T01:11:10.428Z,6.90
2023-01-09T01:12:13.413Z,6.90
2023-01-09T01:13:15.879Z,6.90
2023-01-09T01:14:18.822Z,6.90
2023-01-09T01:15:21.143Z,6.90
2023-01-09T01:16:24.160Z,6.90
2023-01-09T01:17:26.175Z,7.00
2023-01-09T01:18:29.140Z,7.00
2023-01-09T01:19:31.338Z,7.00
2023-01-09T01:20:34.767Z,7.00
2023-01-09T01:21:36.771Z,7.00
2023-01-09T01:22:42.319Z,7.00
2023-01-09T01:23:46.654Z,6.90
2023-01-09T01:24:48.622Z,6.90
2023-01-09T01:25:51.625Z,6.90
2023-01-09T01:26:53.638Z,7.00
2023-01-09T01:27:56.589Z,7.00
2023-01-09T01:28:59.015Z,7.00
2023-01-09T01:30:01.982Z,7.00
2023-01-09T01:31:04.379Z,7.00
2023-01-09T01:32:08.016Z,6.90
2023-01-09T01:33:10.991Z,6.90
2023-01-09T01:34:13.888Z,6.90
2023-01-09T01:35:15.933Z,6.90
2023-01-09T01:36:18.869Z,6.80
2023-01-09T01:37:21.894Z,6.90
2023-01-09T01:38:24.799Z,6.90
2023-01-09T01:39:28.103Z,6.90
2023-01-09T01:40:31.448Z,6.90
2023-01-09T01:41:33.384Z,6.90
2023-01-09T01:42:36.385Z,6.90
2023-01-09T01:43:54.279Z,7.00
2023-01-09T01:45:02.294Z,7.00
2023-01-09T01:46:05.317Z,7.00
2023-01-09T01:47:07.630Z,7.00
2023-01-09T01:48:13.889Z,6.90
2023-01-09T01:49:20.491Z,6.90
2023-01-09T01:50:29.805Z,7.00
2023-01-09T01:51:37.243Z,7.00
2023-01-09T01:52:40.296Z,7.00
2023-01-09T01:53:46.435Z,7.00
2023-01-09T01:54:50.958Z,7.00
2023-01-09T01:56:05.363Z,7.10
2023-01-09T01:57:07.575Z,7.10
2023-01-09T01:58:14.408Z,7.10
2023-01-09T01:59:23.389Z,7.00
2023-01-09T02:00:31.118Z,7.00
2023-01-09T02:01:34.735Z,7.00
2023-01-09T02:02:36.808Z,6.90
2023-01-09T02:03:41.684Z,6.90
2023-01-09T02:04:43.683Z,7.00
2023-01-09T02:05:46.783Z,7.00
2023-01-09T02:06:51.946Z,6.90
2023-01-09T02:07:54.875Z,7.10
2023-01-09T02:08:57.867Z,6.90
2023-01-09T02:10:02.518Z,6.90
2023-01-09T02:11:05.556Z,6.80
2023-01-09T02:12:17.572Z,6.80
2023-01-09T02:13:21.439Z,6.80
2023-01-09T02:14:26.295Z,6.80
2023-01-09T02:15:34.900Z,6.80
2023-01-09T02:16:47.875Z,6.80
2023-01-09T02:18:19.989Z,6.80
2023-01-09T02:19:59.629Z,6.90
2023-01-09T02:21:11.211Z,6.90
2023-01-09T02:22:20.451Z,6.90
2023-01-09T02:24:08.602Z,6.90
2023-01-09T02:25:37.074Z,6.90
2023-01-09T02:27:08.413Z,6.80
2023-01-09T02:28:39.498Z,6.90
2023-01-09T02:30:20.525Z,6.90
2023-01-09T02:31:28.499Z,6.90
2023-01-09T02:32:45.183Z,6.90
2023-01-09T02:33:57.305Z,6.90
2023-01-09T02:35:10.660Z,7.10
2023-01-09T02:36:22.363Z,7.00
2023-01-09T02:37:31.497Z,7.00
2023-01-09T02:38:40.118Z,6.90
2023-01-09T02:39:49.879Z,6.90
2023-01-09T02:41:00.618Z,7.00
2023-01-09T02:42:10.573Z,7.00
2023-01-09T02:43:14.457Z,7.00
2023-01-09T02:44:21.563Z,7.00
2023-01-09T02:45:26.022Z,6.90
2023-01-09T02:46:28.042Z,6.90
2023-01-09T02:47:51.659Z,6.90
2023-01-09T02:48:54.371Z,6.90
2023-01-09T02:50:00.217Z,6.90
2023-01-09T02:51:13.910Z,7.00
2023-01-09T02:52:33.343Z,7.00
2023-01-09T02:54:10.353Z,7.00
2023-01-09T02:55:19.134Z,6.90
2023-01-09T02:56:36.363Z,6.90
2023-01-09T02:57:54.547Z,6.90
2023-01-09T02:59:15.754Z,6.90
2023-01-09T03:00:33.238Z,6.90
2023-01-09T03:01:48.091Z,6.90
2023-01-09T03:02:53.310Z,6.90
2023-01-09T03:04:05.757Z,6.80
2023-01-09T03:05:13.865Z,6.90
2023-01-09T03:06:23.255Z,6.90
2023-01-09T03:07:30.354Z,6.90
2023-01-09T03:08:38.969Z,6.90
2023-01-09T03:09:43.063Z,6.90
2023-01-09T03:10:53.608Z,6.90
2023-01-09T03:12:00.128Z,6.90
2023-01-09T03:13:04.181Z,6.80
2023-01-09T03:14:11.602Z,6.90
2023-01-09T03:15:16.436Z,6.80
2023-01-09T03:16:24.179Z,6.90
2023-01-09T03:17:30.871Z,6.90
2023-01-09T03:18:34.900Z,6.90
2023-01-09T03:19:39.439Z,7.00
2023-01-09T03:20:42.770Z,6.90
2023-01-09T03:21:47.487Z,6.90
2023-01-09T03:22:54.923Z,6.90
2023-01-09T03:24:00.277Z,6.90
2023-01-09T03:25:02.318Z,6.90
2023-01-09T03:26:05.251Z,6.80
2023-01-09T03:27:08.501Z,6.80
2023-01-09T03:28:23.223Z,6.80
2023-01-09T03:29:25.215Z,6.80
2023-01-09T03:30:29.722Z,6.80
2023-01-09T03:31:33.194Z,6.80
2023-01-09T03:32:36.129Z,6.90
2023-01-09T03:33:38.061Z,6.90
2023-01-09T03:34:41.013Z,6.90
2023-01-09T03:35:42.959Z,6.90
2023-01-09T03:36:45.959Z,6.90
2023-01-09T03:37:47.951Z,6.80
2023-01-09T03:38:51.524Z,6.80
2023-01-09T03:39:53.531Z,6.80
2023-01-09T03:40:56.469Z,6.80
2023-01-09T03:41:58.488Z,6.90
2023-01-09T03:43:01.462Z,6.90
2023-01-09T03:44:03.485Z,6.90
2023-01-09T03:45:07.657Z,6.90
2023-01-09T03:46:10.036Z,6.90
2023-01-09T03:47:14.338Z,6.90
2023-01-09T03:48:16.303Z,6.90
2023-01-09T03:49:19.250Z,6.90
2023-01-09T03:50:21.174Z,6.90
2023-01-09T03:51:24.156Z,7.00
2023-01-09T03:52:26.148Z,6.90
2023-01-09T03:53:29.964Z,7.00
2023-01-09T03:54:31.892Z,6.90
2023-01-09T03:55:34.894Z,6.90
2023-01-09T03:56:36.929Z,7.00
2023-01-09T03:57:39.912Z,6.90
2023-01-09T03:58:41.823Z,6.90
2023-01-09T03:59:44.735Z,6.90
2023-01-09T04:00:48.782Z,6.90
2023-01-09T04:01:51.936Z,6.90
2023-01-09T04:02:55.297Z,6.80
2023-01-09T04:03:58.294Z,6.80
2023-01-09T04:05:00.251Z,6.90
2023-01-09T04:06:03.160Z,6.90
2023-01-09T04:07:05.152Z,6.90
2023-01-09T04:08:08.405Z,6.90
2023-01-09T04:09:10.329Z,6.90
2023-01-09T04:10:13.632Z,6.90
2023-01-09T04:11:17.994Z,6.90
2023-01-09T04:12:20.927Z,6.90
2023-01-09T04:13:23.155Z,6.90
2023-01-09T04:14:26.143Z,6.80
2023-01-09T04:15:28.199Z,6.80
2023-01-09T04:16:31.378Z,6.80
2023-01-09T04:17:33.447Z,6.80
2023-01-09T04:18:37.801Z,6.80
2023-01-09T04:19:39.754Z,6.90
2023-01-09T04:20:43.092Z,6.90
2023-01-09T04:21:45.051Z,6.90
2023-01-09T04:22:48.006Z,6.90
2023-01-09T04:23:50.093Z,6.90
2023-01-09T04:24:53.004Z,6.90
2023-01-09T04:25:54.905Z,7.00
2023-01-09T04:26:57.875Z,7.10
2023-01-09T04:27:59.795Z,7.00
2023-01-09T04:29:02.841Z,7.00
2023-01-09T04:30:05.719Z,7.00
2023-01-09T04:31:09.217Z,6.80
2023-01-09T04:32:11.180Z,6.90
2023-01-09T04:33:14.164Z,6.90
2023-01-09T04:34:17.637Z,6.90
2023-01-09T04:35:21.115Z,6.90
2023-01-09T04:36:24.103Z,6.90
2023-01-09T04:37:26.115Z,6.90
2023-01-09T04:38:29.050Z,6.90
2023-01-09T04:39:31.190Z,6.80
2023-01-09T04:40:34.138Z,6.80
2023-01-09T04:41:51.208Z,6.80
2023-01-09T04:42:54.125Z,6.90
2023-01-09T04:43:56.127Z,6.90
2023-01-09T04:44:59.061Z,6.90
2023-01-09T04:46:01.988Z,6.90
2023-01-09T04:47:05.566Z,6.80
2023-01-09T04:48:07.599Z,6.70
2023-01-09T04:49:10.512Z,6.80
2023-01-09T04:50:14.850Z,6.70
2023-01-09T04:51:16.842Z,6.80
2023-01-09T04:52:19.874Z,6.80
2023-01-09T04:53:22.857Z,6.90
2023-01-09T04:54:24.812Z,7.00
2023-01-09T04:55:27.806Z,7.00
2023-01-09T04:56:29.729Z,7.00
2023-01-09T04:57:32.714Z,7.10
2023-01-09T04:58:34.668Z,7.10
2023-01-09T04:59:37.679Z,7.10
2023-01-09T05:00:39.632Z,7.10
2023-01-09T05:01:42.792Z,7.10
2023-01-09T05:02:44.828Z,7.00
2023-01-09T05:03:47.827Z,7.00
2023-01-09T05:04:49.824Z,7.00
2023-01-09T05:05:54.124Z,6.90
2023-01-09T05:06:56.128Z,7.00
2023-01-09T05:07:59.067Z,7.00
2023-01-09T05:09:01.371Z,7.00
2023-01-09T05:10:06.780Z,7.00
2023-01-09T05:11:08.706Z,7.00
2023-01-09T05:12:12.054Z,7.00
2023-01-09T05:13:13.976Z,7.00
2023-01-09T05:14:16.889Z,7.00
2023-01-09T05:15:22.623Z,6.90
2023-01-09T05:16:25.578Z,7.00
2023-01-09T05:17:27.551Z,7.00
2023-01-09T05:18:30.552Z,7.00
2023-01-09T05:19:32.790Z,7.00
2023-01-09T05:20:36.249Z,7.00
2023-01-09T05:21:39.727Z,7.00
2023-01-09T05:22:42.664Z,6.90
2023-01-09T05:23:44.608Z,7.00
2023-01-09T05:24:47.659Z,7.00
2023-01-09T05:25:49.697Z,7.00
2023-01-09T05:26:52.645Z,7.00
2023-01-09T05:27:54.604Z,7.00
2023-01-09T05:28:57.729Z,7.00
2023-01-09T05:29:59.664Z,7.00
2023-01-09T05:31:02.587Z,7.00
2023-01-09T05:32:05.939Z,7.10
2023-01-09T05:33:08.860Z,7.00
2023-01-09T05:34:10.831Z,7.00
2023-01-09T05:35:13.750Z,7.00
2023-01-09T05:36:16.275Z,7.00
2023-01-09T05:37:20.549Z,7.00
2023-01-09T05:38:22.600Z,7.00
2023-01-09T05:39:25.637Z,7.00
2023-01-09T05:40:32.299Z,7.00
2023-01-09T05:41:41.558Z,7.00
2023-01-09T05:42:43.943Z,7.00
2023-01-09T05:43:46.869Z,7.00
2023-01-09T05:44:49.987Z,7.00
2023-01-09T05:45:52.178Z,7.00
2023-01-09T05:46:55.213Z,7.00
2023-01-09T05:47:57.852Z,7.10
2023-01-09T05:49:00.906Z,7.10
2023-01-09T05:50:03.206Z,7.10
2023-01-09T05:51:06.489Z,7.00
2023-01-09T05:52:09.573Z,7.00
2023-01-09T05:53:12.955Z,7.00
2023-01-09T05:54:15.998Z,7.00
2023-01-09T05:55:18.447Z,7.00
2023-01-09T05:56:21.893Z,7.00
2023-01-09T05:57:24.953Z,7.10
2023-01-09T05:58:26.973Z,7.10
2023-01-09T05:59:29.999Z,7.10
2023-01-09T06:00:31.997Z,7.10
2023-01-09T06:01:34.973Z,7.00
2023-01-09T06:02:37.100Z,7.00
2023-01-09T06:03:40.216Z,7.00
2023-01-09T06:04:43.874Z,7.00
2023-01-09T06:05:46.021Z,7.10
2023-01-09T06:06:49.044Z,7.10
2023-01-09T06:07:51.138Z,7.00
2023-01-09T06:08:55.524Z,7.00
2023-01-09T06:09:57.543Z,7.10
2023-01-09T06:11:00.750Z,7.10
2023-01-09T06:12:02.814Z,7.00
2023-01-09T06:13:06.121Z,7.10
2023-01-09T06:14:08.319Z,7.10
2023-01-09T06:15:12.517Z,7.10
2023-01-09T06:16:14.511Z,7.00
2023-01-09T06:17:17.941Z,7.00
2023-01-09T06:18:19.898Z,7.10
2023-01-09T06:19:23.167Z,7.10
2023-01-09T06:20:25.121Z,7.10
2023-01-09T06:21:29.486Z,7.00
2023-01-09T06:22:31.497Z,7.00
2023-01-09T06:23:34.585Z,7.00
2023-01-09T06:24:37.947Z,7.00
2023-01-09T06:25:40.922Z,7.00
2023-01-09T06:26:42.899Z,7.00
2023-01-09T06:27:45.927Z,7.00
2023-01-09T06:28:47.926Z,7.10
2023-01-09T06:29:50.962Z,7.10
2023-01-09T06:30:53.311Z,7.10
2023-01-09T06:31:56.289Z,7.10
2023-01-09T06:32:58.269Z,7.10
2023-01-09T06:34:01.286Z,7.10
2023-01-09T06:35:03.508Z,7.20
2023-01-09T06:36:07.115Z,7.20
2023-01-09T06:37:09.114Z,7.10
2023-01-09T06:38:12.283Z,7.10
2023-01-09T06:39:14.426Z,7.10
2023-01-09T06:40:21.071Z,7.00
2023-01-09T06:41:23.012Z,7.00
2023-01-09T06:42:26.011Z,7.00
2023-01-09T06:43:27.986Z,7.00
2023-01-09T06:44:30.991Z,6.90
2023-01-09T06:45:33.192Z,6.90
2023-01-09T06:46:36.125Z,6.90
2023-01-09T06:47:38.043Z,7.00
2023-01-09T06:48:41.147Z,6.90
2023-01-09T06:49:43.144Z,6.90
2023-01-09T06:50:46.795Z,7.00
2023-01-09T06:51:48.723Z,7.10
2023-01-09T06:52:51.633Z,7.20
2023-01-09T06:53:53.577Z,7.10
2023-01-09T06:54:56.519Z,7.10
2023-01-09T06:56:02.226Z,7.20
2023-01-09T06:57:04.318Z,7.20
2023-01-09T06:58:07.318Z,7.30
2023-01-09T06:59:09.358Z,7.20
2023-01-09T07:00:13.490Z,7.20
2023-01-09T07:01:15.776Z,7.20
2023-01-09T07:02:20.915Z,7.20
2023-01-09T07:03:23.012Z,7.20
2023-01-09T07:04:25.982Z,7.30
2023-01-09T07:05:28.061Z,7.30
2023-01-09T07:06:31.059Z,7.30
2023-01-09T07:07:33.051Z,7.30
2023-01-09T07:08:36.034Z,7.30
2023-01-09T07:09:38.399Z,7.30
2023-01-09T07:10:41.410Z,7.40
2023-01-09T07:11:45.787Z,7.40
2023-01-09T07:12:48.734Z,7.40
2023-01-09T07:13:50.726Z,7.40
2023-01-09T07:14:54.793Z,7.40
2023-01-09T07:15:58.687Z,7.40
2023-01-09T07:17:00.683Z,7.50
2023-01-09T07:18:04.337Z,7.50
2023-01-09T07:19:06.270Z,7.50
2023-01-09T07:20:10.625Z,7.60
2023-01-09T07:21:12.543Z,7.60
2023-01-09T07:22:15.487Z,7.60
2023-01-09T07:23:18.812Z,7.70
2023-01-09T07:24:21.773Z,7.70
2023-01-09T07:25:23.785Z,7.70
2023-01-09T07:26:26.751Z,7.70
2023-01-09T07:27:31.101Z,7.70
2023-01-09T07:28:33.035Z,7.70
2023-01-09T07:29:36.011Z,7.80
2023-01-09T07:30:42.492Z,7.70
2023-01-09T07:31:44.494Z,7.70
2023-01-09T07:32:47.425Z,7.70
2023-01-09T07:33:50.414Z,7.70
2023-01-09T07:34:52.657Z,7.80
2023-01-09T07:35:55.645Z,7.70
2023-01-09T07:36:57.606Z,7.70
2023-01-09T07:38:00.687Z,7.80
2023-01-09T07:39:02.836Z,7.80
2023-01-09T07:40:06.767Z,7.80
2023-01-09T07:41:09.736Z,7.70
2023-01-09T07:42:11.785Z,7.80
2023-01-09T07:43:16.063Z,7.80
2023-01-09T07:44:19.045Z,7.80
2023-01-09T07:45:21.327Z,7.70
2023-01-09T07:46:24.391Z,7.80
2023-01-09T07:47:26.369Z,7.70
2023-01-09T07:48:29.337Z,7.80
2023-01-09T07:49:32.306Z,7.80
2023-01-09T07:50:35.305Z,7.80
2023-01-09T07:51:42.952Z,7.80
2023-01-09T07:52:46.485Z,7.90
2023-01-09T07:53:48.478Z,7.90
2023-01-09T07:54:51.401Z,7.80
2023-01-09T07:55:54.355Z,7.90
2023-01-09T07:56:59.158Z,7.90
2023-01-09T07:58:02.119Z,7.80
2023-01-09T07:59:05.430Z,7.80
2023-01-09T08:00:11.040Z,7.80
2023-01-09T08:01:14.446Z,7.90
2023-01-09T08:02:18.187Z,7.90
2023-01-09T08:03:20.162Z,7.90
2023-01-09T08:04:23.519Z,7.90
2023-01-09T08:05:25.540Z,7.90
2023-01-09T08:06:28.521Z,7.90
2023-01-09T08:07:31.546Z,7.90
2023-01-09T08:08:34.506Z,7.90
2023-01-09T08:09:36.439Z,8.10
2023-01-09T08:10:39.345Z,8.00
2023-01-09T08:11:42.345Z,8.00
2023-01-09T08:12:44.351Z,7.90
2023-01-09T08:13:47.319Z,7.90
2023-01-09T08:14:51.345Z,8.00
2023-01-09T08:15:54.410Z,8.00
2023-01-09T08:16:56.386Z,8.10
2023-01-09T08:17:59.326Z,8.00
2023-01-09T08:19:02.284Z,8.00
2023-01-09T08:20:04.773Z,8.00
2023-01-09T08:21:07.896Z,7.90
2023-01-09T08:22:10.030Z,8.00
2023-01-09T08:23:12.989Z,8.00
2023-01-09T08:24:15.013Z,8.10
2023-01-09T08:25:18.174Z,8.00
2023-01-09T08:26:21.097Z,8.00
2023-01-09T08:27:23.113Z,8.10
2023-01-09T08:28:26.073Z,8.10
2023-01-09T08:29:29.060Z,8.10
2023-01-09T08:30:33.493Z,8.20
2023-01-09T08:31:36.499Z,8.10
2023-01-09T08:32:38.835Z,8.20
2023-01-09T08:33:46.853Z,8.20
2023-01-09T08:34:48.865Z,8.20
2023-01-09T08:35:51.925Z,8.20
2023-01-09T08:36:54.887Z,8.20
2023-01-09T08:37:56.898Z,8.20
2023-01-09T08:38:59.833Z,8.20
2023-01-09T08:40:01.836Z,8.30
2023-01-09T08:41:24.791Z,8.30
2023-01-09T08:42:47.798Z,8.40
2023-01-09T08:44:08.379Z,8.30
2023-01-09T08:45:30.043Z,8.30
2023-01-09T08:46:52.253Z,8.30
2023-01-09T08:47:55.408Z,8.30
2023-01-09T08:48:57.331Z,8.40
2023-01-09T08:50:00.539Z,8.30
2023-01-09T08:51:03.555Z,8.30
2023-01-09T08:52:07.416Z,8.40
2023-01-09T08:53:10.393Z,8.50
2023-01-09T08:54:13.723Z,8.40
2023-01-09T08:55:16.761Z,8.40
2023-01-09T08:56:19.666Z,8.40
2023-01-09T08:57:21.606Z,8.40
2023-01-09T08:58:24.524Z,8.40
2023-01-09T08:59:26.472Z,8.40
2023-01-09T09:00:29.696Z,8.30
2023-01-09T09:01:33.712Z,8.40
2023-01-09T09:02:36.786Z,8.40
2023-01-09T09:03:39.724Z,8.30
2023-01-09T09:04:42.905Z,8.30
2023-01-09T09:05:46.752Z,8.30
2023-01-09T09:06:49.902Z,8.30
2023-01-09T09:07:55.677Z,8.40
2023-01-09T09:09:02.990Z,8.40
2023-01-09T09:10:06.644Z,8.40
2023-01-09T09:11:08.676Z,8.40
2023-01-09T09:12:11.625Z,8.40
2023-01-09T09:13:13.608Z,8.40
2023-01-09T09:14:33.866Z,8.40
2023-01-09T09:15:38.160Z,8.40
2023-01-09T09:16:41.555Z,8.40
2023-01-09T09:17:44.603Z,8.40
2023-01-09T09:18:46.547Z,8.40
2023-01-09T09:19:49.547Z,8.40
2023-01-09T09:20:52.696Z,8.40
2023-01-09T09:21:54.709Z,8.40
2023-01-09T09:22:57.814Z,8.40
2023-01-09T09:23:59.768Z,8.40
2023-01-09T09:25:04.504Z,8.40
2023-01-09T09:26:07.644Z,8.40
2023-01-09T09:27:09.571Z,8.40
2023-01-09T09:28:12.474Z,8.40
2023-01-09T09:29:14.628Z,8.40
2023-01-09T09:30:19.773Z,8.40
2023-01-09T09:31:22.784Z,8.40
2023-01-09T09:32:27.214Z,8.40
2023-01-09T09:33:34.790Z,8.40
2023-01-09T09:34:36.746Z,8.40
2023-01-09T09:35:41.631Z,8.40
2023-01-09T09:36:43.629Z,8.40
2023-01-09T09:37:55.056Z,8.50
2023-01-09T09:38:57.044Z,8.50
2023-01-09T09:40:09.816Z,8.40
2023-01-09T09:41:51.153Z,8.40
2023-01-09T09:43:27.181Z,8.40
2023-01-09T09:44:54.530Z,8.50
2023-01-09T09:46:04.035Z,8.50
2023-01-09T09:47:14.333Z,8.50
2023-01-09T09:48:31.875Z,8.50
2023-01-09T09:49:44.295Z,8.60
2023-01-09T09:51:07.499Z,8.50
2023-01-09T09:52:20.437Z,8.50
2023-01-09T09:53:28.611Z,8.50
2023-01-09T09:54:38.054Z,8.50
2023-01-09T09:55:43.030Z,8.50
2023-01-09T09:56:50.327Z,8.50
2023-01-09T09:57:53.972Z,8.50
2023-01-09T09:59:00.000Z,8.50
2023-01-09T10:00:04.665Z,8.50
2023-01-09T10:01:13.863Z,8.50
2023-01-09T10:02:27.656Z,8.50
2023-01-09T10:03:36.438Z,8.50
2023-01-09T10:04:42.610Z,8.50
2023-01-09T10:05:49.792Z,8.50
2023-01-09T10:06:56.666Z,8.50
2023-01-09T10:08:15.390Z,8.60
2023-01-09T10:09:26.732Z,8.50
2023-01-09T10:10:34.217Z,8.50
2023-01-09T10:13:52.821Z,8.50
2023-01-09T10:14:57.175Z,8.50
2023-01-09T10:16:07.484Z,8.60
2023-01-09T10:17:31.225Z,8.60
2023-01-09T10:18:48.191Z,8.60
2023-01-09T10:20:12.785Z,8.60
2023-01-09T10:21:19.824Z,8.60
2023-01-09T10:22:32.884Z,8.60
2023-01-09T10:23:57.369Z,8.60
2023-01-09T10:25:16.373Z,8.60
2023-01-09T10:26:26.999Z,8.60
2023-01-09T10:27:57.055Z,8.60
2023-01-09T10:29:16.071Z,8.60
2023-01-09T10:30:34.034Z,8.70
2023-01-09T10:31:50.007Z,8.60
2023-01-09T10:33:01.448Z,8.60
2023-01-09T10:34:23.484Z,8.70
2023-01-09T10:35:51.867Z,8.70
2023-01-09T10:37:09.775Z,8.70
2023-01-09T10:38:15.985Z,8.70
2023-01-09T10:39:22.922Z,8.60
2023-01-09T10:40:32.358Z,8.70
2023-01-09T10:41:41.399Z,8.70
2023-01-09T10:42:48.453Z,8.70
2023-01-09T10:43:56.196Z,8.70
2023-01-09T10:45:04.807Z,8.70
2023-01-09T10:46:13.124Z,8.60
2023-01-09T10:47:18.752Z,8.70
2023-01-09T10:48:28.366Z,8.60
2023-01-09T10:49:32.693Z,8.60
2023-01-09T10:50:39.127Z,8.70
2023-01-09T10:51:48.023Z,8.80
2023-01-09T10:54:22.072Z,8.60
2023-01-09T10:55:36.332Z,8.60
2023-01-09T10:56:43.059Z,8.70
2023-01-09T10:57:48.267Z,8.70
2023-01-09T10:58:51.490Z,8.70
2023-01-09T10:59:54.417Z,8.60
2023-01-09T11:00:59.479Z,8.70
2023-01-09T11:02:02.710Z,8.70
2023-01-09T11:03:06.213Z,8.70
2023-01-09T11:04:21.443Z,8.70
2023-01-09T11:05:32.668Z,8.70
2023-01-09T11:06:44.616Z,8.70
2023-01-09T11:07:53.936Z,8.70
2023-01-09T11:09:00.085Z,8.70
2023-01-09T11:10:04.980Z,8.70
2023-01-09T11:11:07.944Z,8.70
2023-01-09T11:12:25.343Z,8.80
2023-01-09T11:13:31.797Z,8.70
2023-01-09T11:14:34.840Z,8.70
2023-01-09T11:15:37.838Z,8.70
2023-01-09T11:16:52.582Z,8.70
2023-01-09T11:17:56.812Z,8.70
2023-01-09T11:19:02.583Z,8.70
2023-01-09T11:20:06.430Z,8.70
2023-01-09T11:21:31.613Z,8.70
2023-01-09T11:22:44.425Z,8.80
2023-01-09T11:23:46.488Z,8.70
2023-01-09T11:25:01.554Z,8.80
2023-01-09T11:26:04.698Z,8.80
2023-01-09T11:27:25.176Z,8.80
2023-01-09T11:28:29.297Z,8.80
2023-01-09T11:29:31.247Z,8.80
2023-01-09T11:30:36.282Z,8.90
2023-01-09T11:31:40.637Z,8.80
2023-01-09T11:32:43.413Z,8.80
2023-01-09T11:33:51.754Z,8.80
2023-01-09T11:34:54.872Z,8.80
2023-01-09T11:36:05.069Z,8.80
2023-01-09T11:37:12.001Z,8.70
2023-01-09T11:38:17.635Z,8.70
2023-01-09T11:39:24.877Z,8.70
2023-01-09T11:40:27.360Z,8.70
2023-01-09T11:41:32.261Z,8.80
2023-01-09T11:42:52.602Z,8.80
2023-01-09T11:43:58.357Z,8.80
2023-01-09T11:45:01.572Z,8.90
2023-01-09T11:46:07.037Z,8.90
2023-01-09T11:47:27.569Z,8.80
2023-01-09T11:48:39.552Z,8.90
2023-01-09T11:49:42.537Z,8.90
2023-01-09T11:50:55.843Z,8.80
2023-01-09T11:52:19.600Z,8.70
2023-01-09T11:53:21.566Z,8.80
2023-01-09T11:54:28.403Z,8.80
2023-01-09T11:55:41.756Z,8.80
2023-01-09T11:56:46.683Z,8.80
2023-01-09T11:57:52.951Z,8.80
2023-01-09T11:58:56.059Z,8.80
2023-01-09T12:00:03.315Z,8.90
2023-01-09T12:01:19.718Z,8.90
2023-01-09T12:02:48.534Z,8.90
2023-01-09T12:04:10.605Z,8.90
2023-01-09T12:05:24.706Z,8.90
2023-01-09T12:06:36.598Z,8.90
2023-01-09T12:08:09.793Z,8.90
2023-01-09T12:09:16.749Z,8.90
2023-01-09T12:10:53.841Z,8.90
2023-01-09T12:12:04.096Z,8.90
2023-01-09T12:13:15.337Z,9.00
2023-01-09T12:14:33.386Z,9.00
2023-01-09T12:15:43.988Z,8.90
2023-01-09T12:17:00.724Z,8.90
2023-01-09T12:18:28.808Z,8.90
2023-01-09T12:19:58.321Z,8.90
2023-01-09T12:21:17.696Z,8.90
2023-01-09T12:22:29.138Z,8.80
2023-01-09T12:23:45.987Z,8.90
2023-01-09T12:25:14.847Z,8.80
2023-01-09T12:26:22.068Z,8.80
2023-01-09T12:27:32.302Z,8.70
2023-01-09T12:28:54.482Z,8.80
2023-01-09T12:30:11.944Z,8.90
2023-01-09T12:31:32.127Z,8.80
2023-01-09T12:32:50.963Z,8.90
2023-01-09T12:34:04.803Z,8.90
2023-01-09T12:35:19.100Z,8.90
2023-01-09T12:36:29.175Z,8.80
2023-01-09T12:38:07.831Z,8.80
2023-01-09T12:39:23.330Z,8.90
2023-01-09T12:40:43.486Z,8.90
2023-01-09T12:42:02.618Z,8.80
2023-01-09T12:43:15.641Z,8.80
2023-01-09T12:44:49.511Z,8.80
2023-01-09T12:46:04.293Z,8.80
2023-01-09T12:47:18.769Z,8.90
2023-01-09T12:48:36.911Z,8.80
2023-01-09T12:49:47.925Z,8.70
2023-01-09T12:51:06.090Z,8.70
2023-01-09T12:52:13.465Z,8.80
2023-01-09T12:53:21.528Z,8.80
2023-01-09T12:54:33.604Z,8.80
2023-01-09T12:55:40.007Z,8.80
2023-01-09T12:56:48.632Z,8.90
2023-01-09T12:57:52.926Z,8.90
2023-01-09T12:58:58.676Z,8.80
2023-01-09T13:00:05.293Z,8.80
2023-01-09T13:01:19.332Z,8.80
2023-01-09T13:02:30.598Z,8.80
2023-01-09T13:03:39.999Z,9.00
2023-01-09T13:04:47.111Z,8.80
2023-01-09T13:05:53.254Z,8.90
2023-01-09T13:07:00.683Z,8.90
2023-01-09T13:08:06.905Z,8.90
2023-01-09T13:09:21.467Z,9.00
2023-01-09T13:10:33.213Z,8.90
2023-01-09T13:11:41.800Z,8.90
2023-01-09T13:12:48.049Z,8.90
2023-01-09T13:13:55.802Z,9.00
2023-01-09T13:15:03.548Z,8.90
2023-01-09T13:16:11.915Z,8.90
2023-01-09T13:17:20.993Z,9.00
2023-01-09T13:18:28.951Z,9.00
2023-01-09T13:19:37.377Z,9.00
2023-01-09T13:20:45.842Z,9.00
2023-01-09T13:21:49.309Z,9.10
2023-01-09T13:22:53.172Z,9.10
2023-01-09T13:24:00.888Z,9.00
2023-01-09T13:25:41.035Z,9.00
2023-01-09T13:26:47.476Z,9.00
2023-01-09T13:27:57.652Z,9.00
2023-01-09T13:29:04.272Z,8.90
2023-01-09T13:30:18.000Z,8.70
2023-01-09T13:31:36.231Z,8.80
2023-01-09T13:32:47.770Z,8.90
2023-01-09T13:33:54.822Z,8.90
2023-01-09T13:34:57.618Z,9.00
2023-01-09T13:36:02.916Z,9.00
2023-01-09T13:37:06.646Z,9.00
2023-01-09T13:38:19.033Z,9.00
2023-01-09T13:39:24.444Z,9.00
2023-01-09T13:40:30.391Z,9.00
2023-01-09T13:42:04.934Z,9.20
2023-01-09T13:43:09.870Z,9.00
2023-01-09T13:44:23.119Z,9.00
2023-01-09T13:45:28.556Z,9.00
2023-01-09T13:46:37.719Z,9.10
2023-01-09T13:47:40.656Z,9.00
2023-01-09T13:48:43.634Z,9.00
2023-01-09T13:50:17.778Z,8.90
2023-01-09T13:51:58.892Z,8.90
2023-01-09T13:53:42.927Z,9.00
2023-01-09T13:55:28.772Z,9.00
2023-01-09T13:56:31.697Z,9.00
2023-01-09T13:57:36.155Z,9.00
2023-01-09T13:59:03.737Z,9.00
2023-01-09T14:00:43.708Z,9.00
2023-01-09T14:01:47.657Z,9.00
2023-01-09T14:03:06.083Z,9.00
2023-01-09T14:04:39.608Z,9.00
2023-01-09T14:06:16.264Z,9.00
2023-01-09T14:07:26.349Z,9.00
2023-01-09T14:08:31.526Z,9.00
2023-01-09T14:09:37.872Z,9.00
2023-01-09T14:10:49.660Z,9.00
2023-01-09T14:12:04.566Z,9.00
2023-01-09T14:13:15.001Z,9.10
2023-01-09T14:14:29.374Z,9.10
2023-01-09T14:15:37.750Z,9.10
2023-01-09T14:16:41.069Z,9.10
2023-01-09T14:17:44.091Z,9.10
2023-01-09T14:18:50.164Z,9.10
2023-01-09T14:19:57.784Z,9.10
2023-01-09T14:21:03.432Z,9.00
2023-01-09T14:22:08.013Z,9.10
2023-01-09T14:23:42.231Z,9.10
2023-01-09T14:24:52.387Z,9.10
2023-01-09T14:25:56.125Z,9.00
2023-01-09T14:27:00.829Z,9.00
2023-01-09T14:28:23.138Z,9.00
2023-01-09T14:29:44.383Z,9.00
2023-01-09T14:31:09.410Z,8.90
2023-01-09T14:32:46.772Z,8.90
2023-01-09T14:33:49.787Z,8.80
2023-01-09T14:34:56.434Z,8.80
2023-01-09T14:36:09.245Z,8.80
2023-01-09T14:37:15.020Z,8.80
2023-01-09T14:38:31.668Z,8.80
2023-01-09T14:39:36.457Z,8.80
2023-01-09T14:40:39.872Z,8.80
2023-01-09T14:42:07.914Z,8.80
2023-01-09T14:43:20.288Z,8.80
2023-01-09T14:44:30.809Z,8.80
2023-01-09T14:45:36.502Z,8.80
2023-01-09T14:46:40.135Z,8.80
2023-01-09T14:47:46.306Z,8.70
2023-01-09T14:49:01.439Z,8.70
2023-01-09T14:50:07.803Z,8.70
2023-01-09T14:51:17.440Z,8.70
2023-01-09T14:52:26.275Z,8.70
2023-01-09T14:53:32.622Z,8.70
2023-01-09T14:54:39.014Z,8.70
2023-01-09T14:55:51.405Z,8.50
2023-01-09T14:56:54.655Z,8.60
2023-01-09T14:58:09.592Z,8.60